Time;durP1;ratioP1;P1;durP2;ratioP2;P2;SDS_P1;SDS_P2;PMS_P1;PMS_P2;Temp;Humidity;BMP_temperature;BMP_pressure;BME280_temperature;BME280_humidity;BME280_pressure;Samples;Min_cycle;Max_cycle;Signal;HPM_P1;HPM_P2
2023/10/30 00:00:43;;;;;;;18.50;16.13;;;;;22.30;98877.00;;;;2061681;28;20223;-56
2023/10/30 00:01:45;;;;;;;22.50;16.67;;;;;22.30;98887.00;;;;2057743;28;20210;-56
2023/10/30 00:02:45;;;;;;;18.88;16.48;;;;;22.30;98895.00;;;;2061138;28;20599;-56
2023/10/30 00:03:45;;;;;;;21.63;16.60;;;;;22.30;98894.00;;;;2061474;28;20249;-56
2023/10/30 00:04:46;;;;;;;20.10;16.17;;;;;22.30;98893.00;;;;2058731;28;20219;-56
2023/10/30 00:05:46;;;;;;;18.73;15.63;;;;;22.30;98900.00;;;;2050787;28;20216;-57
2023/10/30 00:06:46;;;;;;;20.47;15.90;;;;;22.30;98898.00;;;;2049937;28;20242;-57
2023/10/30 00:07:47;;;;;;;20.83;15.57;;;;;22.30;98901.00;;;;2054243;28;20215;-56
2023/10/30 00:08:47;;;;;;;18.70;14.87;;;;;22.30;98896.00;;;;2058297;28;20233;-56
2023/10/30 00:09:48;;;;;;;17.83;15.37;;;;;22.30;98897.00;;;;2060588;28;20757;-56
2023/10/30 00:10:48;;;;;;;19.90;16.30;;;;;22.00;98955.00;;;;2060632;28;20770;-56
2023/10/30 00:11:49;;;;;;;18.63;15.40;;;;;22.30;98895.00;;;;2050444;28;20797;-57
2023/10/30 00:12:49;;;;;;;18.65;14.05;;;;;22.30;98892.00;;;;2060696;28;20218;-56
2023/10/30 00:13:50;;;;;;;20.50;14.70;;;;;22.30;98892.00;;;;2061133;28;20251;-56
2023/10/30 00:14:50;;;;;;;17.77;14.23;;;;;22.30;98887.00;;;;2065517;28;20218;-56
2023/10/30 00:15:50;;;;;;;18.53;14.67;;;;;22.30;98909.00;;;;2054336;28;20302;-57
2023/10/30 00:16:51;;;;;;;17.80;14.47;;;;;22.20;98895.00;;;;2059305;28;20242;-57
2023/10/30 00:17:51;;;;;;;17.10;14.00;;;;;22.30;98897.00;;;;2060505;28;20221;-57
2023/10/30 00:18:52;;;;;;;19.67;13.70;;;;;22.20;98898.00;;;;2068830;28;20226;-57
2023/10/30 00:19:52;;;;;;;15.43;12.53;;;;;22.20;98898.00;;;;2074181;28;20222;-56
2023/10/30 00:20:52;;;;;;;16.63;13.07;;;;;21.70;98894.00;;;;2051354;28;20219;-56
2023/10/30 00:21:53;;;;;;;17.13;13.37;;;;;22.20;98906.00;;;;2059497;28;20214;-56
2023/10/30 00:22:53;;;;;;;16.90;13.60;;;;;22.20;98905.00;;;;2061425;28;20210;-57
2023/10/30 00:23:53;;;;;;;15.40;12.70;;;;;22.30;98906.00;;;;2060401;28;20245;-56
2023/10/30 00:24:54;;;;;;;14.67;12.10;;;;;22.20;98908.00;;;;2069393;28;20293;-56
2023/10/30 00:25:55;;;;;;;17.40;13.43;;;;;22.20;98909.00;;;;2046378;28;20211;-56
2023/10/30 00:26:55;;;;;;;16.92;13.23;;;;;22.20;98914.00;;;;2066698;28;20217;-56
2023/10/30 00:28:00;;;;;;;16.83;12.60;;;;;22.20;98909.00;;;;2061879;28;20693;-57
2023/10/30 00:29:00;;;;;;;15.65;13.00;;;;;22.20;98922.00;;;;2058897;28;20714;-57
2023/10/30 00:30:00;;;;;;;15.20;12.73;;;;;22.20;98912.00;;;;2057757;28;20310;-57
2023/10/30 00:31:01;;;;;;;14.67;12.47;;;;;22.20;98912.00;;;;2050783;28;20226;-57
2023/10/30 00:32:01;;;;;;;16.57;12.23;;;;;22.20;98909.00;;;;2050996;28;20227;-57
2023/10/30 00:33:02;;;;;;;14.83;12.40;;;;;22.20;98910.00;;;;2060504;28;20682;-57
2023/10/30 00:34:04;;;;;;;13.67;11.20;;;;;22.20;98915.00;;;;2057346;28;20311;-57
2023/10/30 00:35:05;;;;;;;13.32;11.27;;;;;22.20;98908.00;;;;2053729;28;20235;-57
2023/10/30 00:36:06;;;;;;;13.90;11.17;;;;;22.20;98918.00;;;;2048379;28;20207;-57
2023/10/30 00:37:07;;;;;;;12.43;11.10;;;;;22.20;98911.00;;;;2068645;28;20484;-57
2023/10/30 00:38:07;;;;;;;13.10;10.90;;;;;22.20;98925.00;;;;2057225;28;20209;-58
2023/10/30 00:39:07;;;;;;;13.27;10.47;;;;;22.20;98916.00;;;;2067025;28;20810;-57
2023/10/30 00:40:08;;;;;;;13.83;10.93;;;;;22.20;98917.00;;;;2061460;28;20757;-57
2023/10/30 00:41:10;;;;;;;13.83;10.30;;;;;22.20;98934.00;;;;2057523;28;20781;-57
2023/10/30 00:42:11;;;;;;;14.30;11.40;;;;;22.20;98937.00;;;;2060123;28;20222;-57
2023/10/30 00:43:11;;;;;;;13.17;10.50;;;;;22.20;98940.00;;;;2056712;28;20731;-57
2023/10/30 00:44:11;;;;;;;13.97;10.53;;;;;22.20;98927.00;;;;2061234;28;20265;-58
2023/10/30 00:45:12;;;;;;;13.00;10.50;;;;;22.20;98937.00;;;;2061140;28;20210;-57
2023/10/30 00:46:12;;;;;;;13.67;10.53;;;;;22.20;98937.00;;;;2054990;28;20718;-58
2023/10/30 00:47:12;;;;;;;12.50;9.73;;;;;22.10;98940.00;;;;2061425;28;20210;-57
2023/10/30 00:48:13;;;;;;;13.40;9.80;;;;;22.10;98937.00;;;;2061685;28;20230;-57
2023/10/30 00:49:13;;;;;;;13.10;10.27;;;;;22.10;98944.00;;;;2061546;28;20215;-58
2023/10/30 00:50:13;;;;;;;12.23;9.77;;;;;22.10;98944.00;;;;2060064;28;20242;-57
2023/10/30 00:51:14;;;;;;;13.67;10.27;;;;;22.10;98939.00;;;;2058225;28;20241;-57
2023/10/30 00:52:14;;;;;;;12.20;9.80;;;;;22.10;98952.00;;;;2060583;28;20211;-57
2023/10/30 00:53:15;;;;;;;10.73;9.17;;;;;22.10;98943.00;;;;2065451;28;20213;-58
2023/10/30 00:54:15;;;;;;;13.03;9.63;;;;;22.10;98938.00;;;;2058832;28;20608;-57
2023/10/30 00:55:17;;;;;;;12.50;9.77;;;;;22.10;98935.00;;;;2055401;28;20672;-58
2023/10/30 00:56:17;;;;;;;12.30;9.90;;;;;22.10;98940.00;;;;2044888;28;20262;-58
2023/10/30 00:57:17;;;;;;;11.30;8.80;;;;;22.10;98941.00;;;;2059008;28;20347;-58
2023/10/30 00:58:18;;;;;;;11.53;8.73;;;;;22.10;98942.00;;;;2065447;28;20214;-57
2023/10/30 00:59:18;;;;;;;11.50;9.00;;;;;22.10;98934.00;;;;2058440;28;20204;-57
2023/10/30 01:00:18;;;;;;;10.33;8.33;;;;;22.10;98935.00;;;;2059471;28;20957;-57
2023/10/30 01:01:19;;;;;;;10.93;8.27;;;;;22.10;98942.00;;;;2051348;28;20698;-57
2023/10/30 01:02:19;;;;;;;9.50;8.13;;;;;22.10;98900.00;;;;2060335;28;20246;-57
2023/10/30 01:03:23;;;;;;;10.60;8.63;;;;;22.10;98932.00;;;;2067656;28;20258;-57
2023/10/30 01:04:23;;;;;;;11.30;8.00;;;;;22.10;98936.00;;;;2067433;28;20563;-57
2023/10/30 01:05:24;;;;;;;12.80;8.63;;;;;22.10;98943.00;;;;2060977;28;20268;-58
2023/10/30 01:06:24;;;;;;;9.43;7.80;;;;;22.10;98961.00;;;;2049035;28;20222;-57
2023/10/30 01:07:24;;;;;;;10.23;8.00;;;;;22.10;98950.00;;;;2063082;28;20223;-58
2023/10/30 01:08:26;;;;;;;10.63;8.97;;;;;22.10;98954.00;;;;2061390;28;20690;-57
2023/10/30 01:09:26;;;;;;;11.07;8.68;;;;;22.10;98955.00;;;;2063361;28;20758;-57
2023/10/30 01:10:26;;;;;;;9.47;7.50;;;;;22.10;98958.00;;;;2070598;28;20215;-57
2023/10/30 01:11:27;;;;;;;10.70;7.53;;;;;22.10;98958.00;;;;2057265;28;20218;-57
2023/10/30 01:12:27;;;;;;;11.87;8.20;;;;;22.10;98959.00;;;;2068573;28;20245;-57
2023/10/30 01:13:27;;;;;;;9.67;6.90;;;;;22.10;98960.00;;;;2064389;28;21004;-57
2023/10/30 01:14:28;;;;;;;8.33;6.90;;;;;22.10;98958.00;;;;2062181;28;20591;-57
2023/10/30 01:15:28;;;;;;;10.00;7.77;;;;;22.10;98956.00;;;;2060381;28;20226;-58
2023/10/30 01:16:28;;;;;;;9.57;7.40;;;;;22.10;98960.00;;;;2053675;28;20214;-58
2023/10/30 01:17:29;;;;;;;10.43;8.07;;;;;22.10;98964.00;;;;2061026;28;20311;-57
2023/10/30 01:18:29;;;;;;;10.53;7.67;;;;;22.10;98963.00;;;;2057482;28;20293;-57
2023/10/30 01:19:29;;;;;;;9.17;6.60;;;;;22.00;98953.00;;;;2062390;28;20215;-57
2023/10/30 01:20:29;;;;;;;9.20;7.63;;;;;22.00;98956.00;;;;2059100;28;20261;-58
2023/10/30 01:21:30;;;;;;;7.63;6.40;;;;;22.10;98954.00;;;;2050251;28;20229;-57
2023/10/30 01:22:30;;;;;;;10.43;7.27;;;;;22.10;98947.00;;;;2060606;28;20218;-57
2023/10/30 01:23:30;;;;;;;8.90;7.20;;;;;22.00;98950.00;;;;2058623;28;20674;-57
2023/10/30 01:24:31;;;;;;;9.10;6.70;;;;;22.00;98951.00;;;;2059877;28;20707;-57
2023/10/30 01:25:31;;;;;;;8.47;6.50;;;;;22.00;98955.00;;;;2055795;28;20238;-57
2023/10/30 01:26:31;;;;;;;10.13;6.70;;;;;22.00;98952.00;;;;2053334;28;20222;-57
2023/10/30 01:27:32;;;;;;;7.37;5.47;;;;;22.00;98952.00;;;;2061055;28;20265;-57
2023/10/30 01:28:32;;;;;;;8.07;6.00;;;;;22.00;98943.00;;;;2060669;28;20222;-57
2023/10/30 01:29:32;;;;;;;7.83;6.67;;;;;22.00;98949.00;;;;2060361;28;20289;-57
2023/10/30 01:30:33;;;;;;;9.10;6.30;;;;;22.00;98953.00;;;;2058720;28;20273;-61
2023/10/30 01:31:33;;;;;;;9.67;6.20;;;;;22.00;98955.00;;;;2050258;28;20222;-60
2023/10/30 01:32:34;;;;;;;8.20;5.97;;;;;22.00;98950.00;;;;2060386;28;20214;-58
2023/10/30 01:33:34;;;;;;;9.30;6.80;;;;;22.00;98949.00;;;;2060082;28;20330;-57
2023/10/30 01:34:34;;;;;;;9.10;6.20;;;;;22.00;98959.00;;;;2061023;28;20245;-57
2023/10/30 01:35:36;;;;;;;8.87;6.43;;;;;22.00;98958.00;;;;2059939;28;20557;-57
2023/10/30 01:36:37;;;;;;;9.70;6.25;;;;;22.00;98961.00;;;;2054593;28;20215;-57
2023/10/30 01:37:37;;;;;;;7.53;6.03;;;;;22.00;98957.00;;;;2060189;28;20268;-57
2023/10/30 01:38:37;;;;;;;6.33;4.80;;;;;22.00;98957.00;;;;2061952;28;20223;-57
2023/10/30 01:39:38;;;;;;;7.77;5.67;;;;;22.00;98956.00;;;;2060645;28;20917;-58
2023/10/30 01:40:48;;;;;;;8.27;5.90;;;;;22.00;98958.00;;;;2060164;28;20699;-57
2023/10/30 01:41:48;;;;;;;9.48;5.97;;;;;22.00;98983.00;;;;2056319;28;20300;-57
2023/10/30 01:42:49;;;;;;;7.40;5.60;;;;;22.00;98960.00;;;;2067101;28;20732;-57
2023/10/30 01:43:49;;;;;;;8.63;6.00;;;;;22.00;98952.00;;;;2061308;28;20211;-57
2023/10/30 01:44:54;;;;;;;7.30;5.47;;;;;22.00;98951.00;;;;2060287;28;20233;-57
2023/10/30 01:45:55;;;;;;;6.80;5.60;;;;;22.00;98949.00;;;;2058654;28;20301;-57
2023/10/30 01:46:55;;;;;;;8.80;5.80;;;;;22.00;98949.00;;;;2067990;28;20669;-57
2023/10/30 01:47:55;;;;;;;7.47;5.60;;;;;22.00;98955.00;;;;2060648;28;20623;-57
2023/10/30 01:48:56;;;;;;;8.13;5.93;;;;;22.00;98948.00;;;;2059201;28;20714;-57
2023/10/30 01:49:56;;;;;;;10.00;5.60;;;;;22.00;98959.00;;;;2057769;28;21342;-58
2023/10/30 01:50:57;;;;;;;7.17;4.90;;;;;22.00;98957.00;;;;2051102;28;20269;-57
2023/10/30 01:51:58;;;;;;;7.37;5.43;;;;;21.80;98957.00;;;;2066852;28;20240;-57
2023/10/30 01:52:58;;;;;;;9.63;5.53;;;;;22.00;98959.00;;;;2060388;28;20465;-57
2023/10/30 01:53:59;;;;;;;6.33;4.63;;;;;22.00;98953.00;;;;2060486;28;20314;-57
2023/10/30 01:54:59;;;;;;;6.07;5.00;;;;;22.00;98958.00;;;;2067105;28;20264;-57
2023/10/30 01:55:59;;;;;;;7.30;5.20;;;;;22.00;98967.00;;;;2057659;28;20272;-57
2023/10/30 01:56:59;;;;;;;5.80;4.70;;;;;22.00;98961.00;;;;2057987;28;20242;-57
2023/10/30 01:58:00;;;;;;;6.83;5.10;;;;;22.00;98949.00;;;;2052449;28;20673;-57
2023/10/30 01:59:00;;;;;;;7.87;5.10;;;;;22.00;98960.00;;;;2059701;28;20631;-57
2023/10/30 02:00:01;;;;;;;6.50;4.87;;;;;22.00;98961.00;;;;2065954;28;20214;-57
2023/10/30 02:01:01;;;;;;;8.77;5.20;;;;;22.00;98960.00;;;;2050151;28;20245;-57
2023/10/30 02:02:01;;;;;;;7.63;5.33;;;;;21.90;98967.00;;;;2058971;28;20242;-57
2023/10/30 02:03:02;;;;;;;6.13;4.57;;;;;22.00;98948.00;;;;2060352;28;20265;-58
2023/10/30 02:04:02;;;;;;;6.33;4.93;;;;;22.00;98965.00;;;;2057633;28;20265;-57
2023/10/30 02:05:04;;;;;;;6.33;4.57;;;;;21.90;98962.00;;;;2060340;28;20211;-57
2023/10/30 02:06:04;;;;;;;6.25;4.60;;;;;21.90;98952.00;;;;2033379;28;20254;-57
2023/10/30 02:07:04;;;;;;;5.90;4.53;;;;;21.90;98958.00;;;;2050970;28;20266;-57
2023/10/30 02:08:05;;;;;;;6.87;4.53;;;;;21.90;98956.00;;;;2068369;28;20691;-57
2023/10/30 02:09:05;;;;;;;7.43;4.63;;;;;22.00;98956.00;;;;2066734;28;20309;-57
2023/10/30 02:10:06;;;;;;;6.23;4.63;;;;;22.00;98945.00;;;;2067911;28;20788;-57
2023/10/30 02:11:07;;;;;;;6.75;4.72;;;;;22.00;98954.00;;;;2049872;28;20814;-61
2023/10/30 02:12:07;;;;;;;6.50;4.30;;;;;21.90;98954.00;;;;2061779;28;20303;-59
2023/10/30 02:13:08;;;;;;;6.73;4.33;;;;;21.90;98960.00;;;;2062845;28;20321;-58
2023/10/30 02:14:08;;;;;;;8.47;4.13;;;;;21.90;98960.00;;;;2066372;28;20317;-57
2023/10/30 02:15:08;;;;;;;5.70;4.13;;;;;22.00;98965.00;;;;2063827;28;20265;-58
2023/10/30 02:16:09;;;;;;;7.10;4.40;;;;;22.00;98963.00;;;;2059109;28;20216;-57
2023/10/30 02:17:09;;;;;;;7.67;4.00;;;;;21.90;98956.00;;;;2070967;28;20643;-58
2023/10/30 02:18:10;;;;;;;6.70;4.40;;;;;21.90;98959.00;;;;2071079;28;20229;-57
2023/10/30 02:19:14;;;;;;;5.57;3.83;;;;;21.90;98960.00;;;;2068400;28;20198;-57
2023/10/30 02:20:14;;;;;;;5.65;3.90;;;;;21.90;98958.00;;;;2070712;28;20218;-58
2023/10/30 02:21:17;;;;;;;5.57;4.00;;;;;21.90;98960.00;;;;2055327;28;20226;-57
2023/10/30 02:22:17;;;;;;;6.65;4.15;;;;;21.90;98968.00;;;;2062601;28;20260;-57
2023/10/30 02:23:18;;;;;;;6.37;4.00;;;;;21.90;98963.00;;;;2060933;28;20284;-57
2023/10/30 02:24:19;;;;;;;7.40;3.90;;;;;21.90;98958.00;;;;2063255;28;20241;-57
2023/10/30 02:25:22;;;;;;;5.65;3.42;;;;;21.90;98964.00;;;;2063180;28;20738;-57
2023/10/30 02:26:23;;;;;;;6.60;3.85;;;;;21.90;98961.00;;;;2055885;28;20259;-57
2023/10/30 02:27:23;;;;;;;5.60;4.10;;;;;21.90;98964.00;;;;2070983;28;20317;-57
2023/10/30 02:28:24;;;;;;;5.03;3.80;;;;;21.90;98961.00;;;;2067839;28;20292;-57
2023/10/30 02:29:25;;;;;;;5.93;3.60;;;;;21.90;98973.00;;;;2063473;28;20226;-57
2023/10/30 02:30:27;;;;;;;6.30;3.97;;;;;21.70;98985.00;;;;2058930;28;23269;-57
2023/10/30 02:31:30;;;;;;;6.97;3.65;;;;;21.90;98963.00;;;;2056282;28;20461;-56
2023/10/30 02:32:30;;;;;;;8.20;3.50;;;;;21.90;98966.00;;;;2062962;28;20233;-56
2023/10/30 02:33:30;;;;;;;5.20;3.23;;;;;21.90;98963.00;;;;2064197;28;20225;-56
2023/10/30 02:34:31;;;;;;;5.40;3.77;;;;;21.90;98965.00;;;;2063455;28;20222;-57
2023/10/30 02:35:32;;;;;;;8.57;3.20;;;;;21.90;98961.00;;;;2061648;28;20219;-55
2023/10/30 02:36:33;;;;;;;4.13;3.10;;;;;21.90;98967.00;;;;2053946;28;20215;-56
2023/10/30 02:37:33;;;;;;;4.97;3.60;;;;;21.90;98966.00;;;;2072345;28;20295;-56
2023/10/30 02:38:34;;;;;;;5.50;3.70;;;;;21.90;98968.00;;;;2075506;28;20224;-56
2023/10/30 02:39:35;;;;;;;4.95;3.25;;;;;21.90;98975.00;;;;2063245;28;20762;-57
2023/10/30 02:40:35;;;;;;;5.30;3.40;;;;;21.90;98974.00;;;;2071443;28;20253;-56
2023/10/30 02:41:35;;;;;;;4.83;3.23;;;;;21.90;98971.00;;;;2057770;28;20217;-56
2023/10/30 02:42:36;;;;;;;3.97;2.80;;;;;21.90;98967.00;;;;2066218;28;20222;-55
2023/10/30 02:43:36;;;;;;;4.00;2.80;;;;;21.90;98968.00;;;;2075103;28;20222;-56
2023/10/30 02:44:37;;;;;;;4.33;2.80;;;;;21.90;98972.00;;;;2070054;28;20236;-56
2023/10/30 02:45:37;;;;;;;4.60;3.33;;;;;21.90;98974.00;;;;2067531;28;20225;-56
2023/10/30 02:46:38;;;;;;;4.63;3.40;;;;;21.50;98968.00;;;;2056138;28;20630;-56
2023/10/30 02:47:38;;;;;;;7.10;3.90;;;;;21.90;98974.00;;;;2065003;28;20251;-55
2023/10/30 02:48:38;;;;;;;5.27;3.50;;;;;21.90;98971.00;;;;2060911;28;20218;-56
2023/10/30 02:49:39;;;;;;;5.03;2.87;;;;;21.90;98978.00;;;;2062525;28;20321;-56
2023/10/30 02:50:39;;;;;;;3.77;3.03;;;;;21.90;98973.00;;;;2063006;28;20250;-56
2023/10/30 02:51:39;;;;;;;5.87;3.10;;;;;21.90;98983.00;;;;2052907;28;20219;-55
2023/10/30 02:52:40;;;;;;;5.53;3.13;;;;;21.80;98981.00;;;;2061507;28;20302;-56
2023/10/30 02:53:40;;;;;;;5.50;3.20;;;;;21.80;98981.00;;;;2063256;28;20245;-56
2023/10/30 02:54:40;;;;;;;6.00;2.83;;;;;21.80;98989.00;;;;2057967;28;20777;-56
2023/10/30 02:55:41;;;;;;;5.07;3.03;;;;;21.90;98967.00;;;;2062649;28;20215;-56
2023/10/30 02:56:41;;;;;;;3.77;2.70;;;;;21.80;98969.00;;;;2055661;28;20971;-59
2023/10/30 02:57:42;;;;;;;6.10;3.20;;;;;21.90;98965.00;;;;2065785;28;20725;-57
2023/10/30 02:58:42;;;;;;;3.83;2.63;;;;;21.80;98963.00;;;;2059356;28;20237;-55
2023/10/30 02:59:42;;;;;;;5.60;3.00;;;;;21.90;98963.00;;;;2052638;28;20232;-57
2023/10/30 03:00:43;;;;;;;4.17;2.90;;;;;21.90;98971.00;;;;2062140;28;20270;-57
2023/10/30 03:01:43;;;;;;;4.57;2.93;;;;;21.90;98981.00;;;;2057865;28;20214;-55
2023/10/30 03:02:43;;;;;;;5.37;2.80;;;;;21.90;98968.00;;;;2066713;28;20227;-56
2023/10/30 03:03:44;;;;;;;4.20;2.93;;;;;21.90;98968.00;;;;2063353;28;20234;-55
2023/10/30 03:04:44;;;;;;;3.83;2.57;;;;;21.90;98971.00;;;;2066523;28;20366;-56
2023/10/30 03:05:45;;;;;;;4.30;2.83;;;;;21.90;98966.00;;;;2062726;28;20250;-56
2023/10/30 03:06:45;;;;;;;4.57;2.70;;;;;21.80;98967.00;;;;2053066;28;20314;-54
2023/10/30 03:07:45;;;;;;;4.73;2.90;;;;;21.80;98973.00;;;;2063565;28;20330;-55
2023/10/30 03:08:46;;;;;;;5.63;2.93;;;;;21.80;98974.00;;;;2063801;28;20225;-57
2023/10/30 03:09:46;;;;;;;4.20;3.10;;;;;21.80;98978.00;;;;2066289;28;20235;-57
2023/10/30 03:10:47;;;;;;;3.53;2.60;;;;;21.90;98967.00;;;;2062440;28;20238;-57
2023/10/30 03:11:47;;;;;;;3.77;2.57;;;;;21.90;98963.00;;;;2062616;28;20667;-56
2023/10/30 03:12:48;;;;;;;5.03;2.43;;;;;21.80;98966.00;;;;2070559;28;20237;-55
2023/10/30 03:13:48;;;;;;;4.37;2.33;;;;;21.80;98968.00;;;;2060657;28;20317;-55
2023/10/30 03:14:48;;;;;;;5.50;2.70;;;;;21.80;98959.00;;;;2062956;28;20237;-56
2023/10/30 03:15:49;;;;;;;4.47;2.37;;;;;21.80;98965.00;;;;2062991;28;20226;-57
2023/10/30 03:16:49;;;;;;;3.93;2.30;;;;;21.80;98961.00;;;;2054461;28;20230;-58
2023/10/30 03:17:49;;;;;;;4.73;2.63;;;;;21.80;98957.00;;;;2068350;28;20329;-56
2023/10/30 03:18:50;;;;;;;4.20;2.47;;;;;21.80;98954.00;;;;2064135;28;20237;-58
2023/10/30 03:19:50;;;;;;;3.93;2.13;;;;;21.80;98969.00;;;;2063443;28;20314;-55
2023/10/30 03:20:50;;;;;;;4.27;2.50;;;;;21.80;98960.00;;;;2066329;28;20226;-60
2023/10/30 03:21:51;;;;;;;3.90;2.93;;;;;21.80;98961.00;;;;2048762;28;20630;-56
2023/10/30 03:22:51;;;;;;;4.37;2.33;;;;;21.80;98960.00;;;;2061249;28;20218;-57
2023/10/30 03:23:52;;;;;;;5.93;2.90;;;;;21.90;98963.00;;;;2070965;28;20226;-57
2023/10/30 03:24:52;;;;;;;4.20;2.50;;;;;21.80;98989.00;;;;2063624;28;20988;-55
2023/10/30 03:25:52;;;;;;;3.93;2.57;;;;;21.80;98965.00;;;;2049739;28;20219;-57
2023/10/30 03:26:53;;;;;;;5.97;2.60;;;;;21.80;98959.00;;;;2058820;28;20725;-56
2023/10/30 03:27:54;;;;;;;3.60;2.07;;;;;21.80;98962.00;;;;2054299;28;20331;-57
2023/10/30 03:28:57;;;;;;;3.70;2.27;;;;;21.80;98966.00;;;;2054104;28;20538;-56
2023/10/30 03:29:58;;;;;;;4.75;2.63;;;;;21.80;98969.00;;;;2067675;28;20226;-56
2023/10/30 03:31:05;;;;;;;3.37;2.07;;;;;21.80;98941.00;;;;2058906;28;20245;-57
2023/10/30 03:32:05;;;;;;;4.97;2.60;;;;;21.80;98968.00;;;;2068779;28;20718;-56
2023/10/30 03:33:06;;;;;;;3.87;2.33;;;;;21.80;98968.00;;;;2067059;28;20219;-58
2023/10/30 03:34:06;;;;;;;4.90;2.70;;;;;21.80;98958.00;;;;2062151;28;20323;-58
2023/10/30 03:35:07;;;;;;;3.67;2.10;;;;;21.80;98964.00;;;;2063981;28;20214;-57
2023/10/30 03:36:07;;;;;;;3.27;2.40;;;;;21.80;98969.00;;;;2046579;28;20294;-56
2023/10/30 03:37:08;;;;;;;3.50;2.20;;;;;21.80;98963.00;;;;2056744;28;20347;-57
2023/10/30 03:38:09;;;;;;;4.95;2.30;;;;;21.80;98968.00;;;;2069645;28;20742;-58
2023/10/30 03:39:09;;;;;;;2.80;2.07;;;;;21.80;98970.00;;;;2069550;28;20221;-56
2023/10/30 03:40:11;;;;;;;3.73;2.07;;;;;21.80;98966.00;;;;2059749;28;20222;-56
2023/10/30 03:41:11;;;;;;;3.13;1.65;;;;;21.80;98973.00;;;;2049732;28;20945;-56
2023/10/30 03:42:11;;;;;;;4.30;2.00;;;;;21.80;98977.00;;;;2064541;28;20218;-56
2023/10/30 03:43:14;;;;;;;4.27;2.00;;;;;21.80;98967.00;;;;2062030;28;20281;-57
2023/10/30 03:44:14;;;;;;;3.97;2.10;;;;;21.80;98965.00;;;;2055505;28;20310;-57
2023/10/30 03:45:14;;;;;;;3.97;2.80;;;;;21.80;98940.00;;;;2068892;28;20608;-58
2023/10/30 03:46:15;;;;;;;4.37;2.27;;;;;21.80;98979.00;;;;2058683;28;20256;-56
2023/10/30 03:47:15;;;;;;;3.53;2.40;;;;;21.80;98966.00;;;;2068372;28;20237;-57
2023/10/30 03:48:15;;;;;;;3.87;2.03;;;;;21.80;98977.00;;;;2055843;28;20219;-57
2023/10/30 03:49:16;;;;;;;2.90;2.30;;;;;21.80;98978.00;;;;2059800;28;20276;-55
2023/10/30 03:50:16;;;;;;;4.60;2.00;;;;;21.80;98972.00;;;;2061944;28;20215;-57
2023/10/30 03:51:17;;;;;;;2.87;2.10;;;;;21.80;98976.00;;;;2057276;28;20313;-59
2023/10/30 03:52:17;;;;;;;4.07;2.07;;;;;21.80;98980.00;;;;2060852;28;20226;-57
2023/10/30 03:53:18;;;;;;;4.53;2.27;;;;;21.80;98974.00;;;;2061414;28;20277;-56
2023/10/30 03:54:18;;;;;;;3.27;2.23;;;;;21.80;98981.00;;;;2065030;28;20218;-56
2023/10/30 03:55:19;;;;;;;2.80;1.80;;;;;21.80;98980.00;;;;2068598;28;20354;-57
2023/10/30 03:56:19;;;;;;;3.77;2.13;;;;;21.80;98981.00;;;;2056977;28;20246;-57
2023/10/30 03:57:19;;;;;;;4.60;1.80;;;;;21.80;98984.00;;;;2061242;28;20238;-58
2023/10/30 03:58:20;;;;;;;3.40;2.00;;;;;21.80;98977.00;;;;2061683;28;20211;-58
2023/10/30 03:59:20;;;;;;;3.73;2.07;;;;;21.80;98985.00;;;;2067602;28;20235;-56
2023/10/30 04:00:20;;;;;;;4.40;1.90;;;;;21.80;98978.00;;;;2059156;28;20689;-56
2023/10/30 04:01:21;;;;;;;2.80;1.83;;;;;21.80;98984.00;;;;2055047;28;20241;-56
2023/10/30 04:02:21;;;;;;;3.40;2.07;;;;;21.50;98976.00;;;;2061819;28;20239;-57
2023/10/30 04:03:21;;;;;;;3.80;1.77;;;;;21.80;98981.00;;;;2055168;28;20206;-58
2023/10/30 04:04:22;;;;;;;3.13;2.10;;;;;21.80;98972.00;;;;2061608;28;20230;-57
2023/10/30 04:05:22;;;;;;;3.40;2.00;;;;;21.80;98980.00;;;;2060950;28;20215;-57
2023/10/30 04:06:22;;;;;;;3.23;1.80;;;;;21.80;98991.00;;;;2054414;28;20253;-55
2023/10/30 04:07:24;;;;;;;3.23;2.03;;;;;21.80;98981.00;;;;2067836;28;20206;-56
2023/10/30 04:08:24;;;;;;;4.38;1.95;;;;;21.80;98980.00;;;;2067727;28;20213;-58
2023/10/30 04:09:24;;;;;;;3.17;2.07;;;;;21.80;98987.00;;;;2061552;28;20616;-58
2023/10/30 04:10:25;;;;;;;3.43;1.67;;;;;21.80;98920.00;;;;2055415;28;20645;-57
2023/10/30 04:11:25;;;;;;;3.27;1.50;;;;;21.80;98989.00;;;;2051554;28;20645;-56
2023/10/30 04:12:25;;;;;;;3.80;2.20;;;;;21.80;98985.00;;;;2066277;28;20595;-57
2023/10/30 04:13:26;;;;;;;3.80;1.83;;;;;21.80;98985.00;;;;2067075;28;20206;-56
2023/10/30 04:14:26;;;;;;;4.10;2.00;;;;;21.80;98988.00;;;;2053169;28;20208;-57
2023/10/30 04:15:26;;;;;;;2.87;1.63;;;;;21.80;98991.00;;;;2054288;28;20362;-57
2023/10/30 04:16:27;;;;;;;3.30;1.77;;;;;21.80;98986.00;;;;2051196;28;20225;-57
2023/10/30 04:17:28;;;;;;;5.95;2.22;;;;;21.80;98991.00;;;;2059476;28;21066;-56
2023/10/30 04:18:28;;;;;;;4.13;1.40;;;;;21.80;98992.00;;;;2061997;28;20226;-56
2023/10/30 04:19:29;;;;;;;2.80;1.77;;;;;21.80;98993.00;;;;2055238;28;20248;-57
2023/10/30 04:20:29;;;;;;;2.53;2.00;;;;;21.80;98993.00;;;;2060674;28;20219;-57
2023/10/30 04:21:29;;;;;;;3.03;1.93;;;;;21.80;98998.00;;;;2049209;28;20313;-56
2023/10/30 04:22:30;;;;;;;4.13;2.10;;;;;21.80;99000.00;;;;2054235;28;20215;-57
2023/10/30 04:23:30;;;;;;;2.30;1.63;;;;;21.80;98991.00;;;;2061012;28;20710;-58
2023/10/30 04:24:31;;;;;;;4.00;1.67;;;;;21.70;98988.00;;;;2068530;28;20772;-57
2023/10/30 04:25:31;;;;;;;3.92;2.13;;;;;21.70;98992.00;;;;2057992;28;20226;-56
2023/10/30 04:26:32;;;;;;;3.00;1.50;;;;;21.70;98982.00;;;;2049810;28;20329;-56
2023/10/30 04:27:35;;;;;;;3.80;1.50;;;;;21.70;98992.00;;;;2057098;28;20223;-57
2023/10/30 04:28:36;;;;;;;3.40;1.58;;;;;21.70;98980.00;;;;2061710;28;20234;-56
2023/10/30 04:29:36;;;;;;;5.97;1.83;;;;;21.70;98982.00;;;;2060627;28;20617;-55
2023/10/30 04:30:36;;;;;;;2.47;1.60;;;;;21.70;98978.00;;;;2065423;28;20230;-57
2023/10/30 04:31:37;;;;;;;3.53;1.70;;;;;21.70;98978.00;;;;2051803;28;20225;-57
2023/10/30 04:32:37;;;;;;;3.30;1.73;;;;;21.70;98983.00;;;;2059457;28;20300;-57
2023/10/30 04:33:38;;;;;;;3.50;1.40;;;;;21.70;98985.00;;;;2068972;28;20210;-58
2023/10/30 04:34:39;;;;;;;3.03;1.52;;;;;21.70;98980.00;;;;2066854;28;20294;-56
2023/10/30 04:35:39;;;;;;;2.90;1.30;;;;;21.70;98982.00;;;;2066258;28;20693;-57
2023/10/30 04:36:39;;;;;;;3.90;1.40;;;;;21.70;98983.00;;;;2044338;28;21795;-57
2023/10/30 04:37:40;;;;;;;3.87;1.77;;;;;21.70;98981.00;;;;2057247;28;20223;-56
2023/10/30 04:38:40;;;;;;;2.80;1.40;;;;;21.70;98983.00;;;;2053403;28;20315;-57
2023/10/30 04:39:40;;;;;;;3.77;1.30;;;;;21.70;98981.00;;;;2056928;28;20231;-55
2023/10/30 04:40:41;;;;;;;4.57;1.60;;;;;21.70;98988.00;;;;2060978;28;20304;-56
2023/10/30 04:41:41;;;;;;;2.10;1.20;;;;;21.70;99001.00;;;;2049769;28;20219;-56
2023/10/30 04:42:41;;;;;;;3.47;1.87;;;;;21.70;98988.00;;;;2068824;28;20234;-57
2023/10/30 04:43:42;;;;;;;3.07;1.70;;;;;21.70;98972.00;;;;2068761;28;20230;-57
2023/10/30 04:44:42;;;;;;;4.37;1.50;;;;;21.70;98978.00;;;;2062139;28;20314;-57
2023/10/30 04:45:42;;;;;;;2.77;1.57;;;;;21.70;98978.00;;;;2059586;28;20682;-57
2023/10/30 04:46:43;;;;;;;3.93;1.67;;;;;21.70;98986.00;;;;2059821;28;20638;-55
2023/10/30 04:47:43;;;;;;;3.37;1.40;;;;;21.70;98985.00;;;;2070235;28;20227;-56
2023/10/30 04:48:44;;;;;;;2.30;1.30;;;;;21.70;98978.00;;;;2055211;28;20325;-56
2023/10/30 04:49:45;;;;;;;3.13;1.67;;;;;21.70;98977.00;;;;2065112;28;20235;-57
2023/10/30 04:50:46;;;;;;;3.17;1.27;;;;;21.70;98979.00;;;;2057032;28;20670;-57
2023/10/30 04:51:46;;;;;;;2.60;1.57;;;;;21.70;98982.00;;;;2054469;28;20239;-57
2023/10/30 04:52:47;;;;;;;4.90;1.97;;;;;21.70;98978.00;;;;2062543;28;20237;-57
2023/10/30 04:53:47;;;;;;;2.80;1.50;;;;;21.70;99033.00;;;;2067544;28;20284;-57
2023/10/30 04:54:47;;;;;;;5.10;1.60;;;;;21.70;98988.00;;;;2065880;28;20885;-57
2023/10/30 04:55:51;;;;;;;3.23;1.37;;;;;21.70;98985.00;;;;2053473;28;20583;-57
2023/10/30 04:56:51;;;;;;;2.65;1.30;;;;;21.70;98979.00;;;;2055918;28;20309;-55
2023/10/30 04:57:52;;;;;;;2.70;1.60;;;;;21.70;98983.00;;;;2052829;28;20657;-56
2023/10/30 04:58:52;;;;;;;2.60;1.50;;;;;21.70;98983.00;;;;2056185;28;20720;-57
2023/10/30 04:59:52;;;;;;;4.93;1.57;;;;;21.70;98980.00;;;;2061319;28;20714;-57
2023/10/30 05:00:53;;;;;;;2.73;1.23;;;;;21.70;98970.00;;;;2059846;28;21491;-57
2023/10/30 05:01:53;;;;;;;3.27;1.23;;;;;21.70;98941.00;;;;2068085;28;20218;-62